createdAt,value
2018-09-01T00:03:56.456Z,24.82
2018-09-01T00:09:51.453Z,21.38
2018-09-01T00:15:46.435Z,24.22
2018-09-01T00:21:41.383Z,28.24
2018-09-01T00:27:36.416Z,26.37
2018-09-01T00:33:31.418Z,18.02
2018-09-01T00:39:26.423Z,22.16
2018-09-01T00:45:21.461Z,26.35
2018-09-01T00:51:16.440Z,25.25
2018-09-01T00:57:11.442Z,27.47
2018-09-01T01:03:06.415Z,21.65
2018-09-01T01:09:01.446Z,21.6
2018-09-01T01:14:56.437Z,22.05
2018-09-01T01:20:51.495Z,18.94
2018-09-01T01:26:46.508Z,17.53
2018-09-01T01:32:41.448Z,19.91
2018-09-01T01:38:36.498Z,21.8
2018-09-01T01:44:31.524Z,19.67
2018-09-01T01:50:26.462Z,25.02
2018-09-01T01:56:21.478Z,21.72
2018-09-01T02:02:16.480Z,24.5
2018-09-01T02:08:11.493Z,26.5
2018-09-01T02:14:06.527Z,20.84
2018-09-01T02:20:01.488Z,23.88
2018-09-01T02:25:56.478Z,21.87
2018-09-01T02:31:51.496Z,21.59
2018-09-01T02:37:46.500Z,19.23
2018-09-01T02:43:41.512Z,27.26
2018-09-01T02:49:36.488Z,26.86
2018-09-01T02:55:31.538Z,23.52
2018-09-01T03:01:26.517Z,22.34
2018-09-01T03:07:21.573Z,19.69
2018-09-01T03:13:16.545Z,18.27
2018-09-01T03:19:11.521Z,20.03
2018-09-01T03:25:06.531Z,23.72
2018-09-01T03:31:01.558Z,25.34
2018-09-01T03:36:56.592Z,22.4
2018-09-01T03:42:51.550Z,21.68
2018-09-01T03:48:46.552Z,18.61
2018-09-01T03:54:41.531Z,27.41
2018-09-01T04:00:36.567Z,20.62
2018-09-01T04:06:31.564Z,19.27
2018-09-01T04:12:26.582Z,21.33
2018-09-01T04:18:21.559Z,17.73
2018-09-01T04:24:16.555Z,30.43
2018-09-01T04:30:11.549Z,20.87
2018-09-01T04:36:06.599Z,21.88
2018-09-01T04:42:01.545Z,32.17
2018-09-01T04:47:56.603Z,26.47
2018-09-01T04:53:51.581Z,20.31
2018-09-01T04:59:46.578Z,33.27
2018-09-01T05:05:41.585Z,14.9
2018-09-01T05:11:36.598Z,22.7
2018-09-01T05:17:31.601Z,16.37
2018-09-01T05:23:26.644Z,16.02
2018-09-01T05:29:21.636Z,10.25
2018-09-01T05:35:16.602Z,13.53
2018-09-01T05:41:11.596Z,12.91
2018-09-01T05:47:06.628Z,11.58
2018-09-01T05:53:01.625Z,7.81
2018-09-01T05:58:56.694Z,3.87
2018-09-01T06:04:51.634Z,8.73
2018-09-01T06:10:46.622Z,5.04
2018-09-01T06:16:41.648Z,4.87
2018-09-01T06:22:36.661Z,6.28
2018-09-01T06:28:31.646Z,8.44
2018-09-01T06:34:26.637Z,4.41
2018-09-01T06:40:21.657Z,4.5
2018-09-01T06:46:16.641Z,10.47
2018-09-01T06:52:11.653Z,8.89
2018-09-01T06:58:06.680Z,9.69
2018-09-01T07:04:01.668Z,7.99
2018-09-01T07:09:56.668Z,7.87
2018-09-01T07:15:51.665Z,15.4
2018-09-01T07:21:46.688Z,18.33
2018-09-01T07:27:41.714Z,13.94
2018-09-01T07:33:36.694Z,16.3
2018-09-01T07:39:31.687Z,23.59
2018-09-01T07:45:26.736Z,20.86
2018-09-01T07:51:21.693Z,18.15
2018-09-01T07:57:16.669Z,27.06
2018-09-01T08:03:11.691Z,18.7
2018-09-01T08:09:06.687Z,18.67
2018-09-01T08:15:01.702Z,21.5
2018-09-01T08:20:56.763Z,22.42
2018-09-01T08:26:51.758Z,21.81
2018-09-01T08:32:46.738Z,14.18
2018-09-01T08:38:41.709Z,15.49
2018-09-01T08:44:36.727Z,14.05
2018-09-01T08:50:31.733Z,13.63
2018-09-01T08:56:26.795Z,16.45
2018-09-01T09:02:21.736Z,12.54
2018-09-01T09:08:16.738Z,45.06
2018-09-01T09:14:11.749Z,14.71
2018-09-01T09:20:06.800Z,17.72
2018-09-01T09:26:01.781Z,22.27
2018-09-01T09:31:56.745Z,25.51
2018-09-01T09:37:51.773Z,19.98
2018-09-01T09:43:46.769Z,18.17
2018-09-01T09:49:41.753Z,12.34
2018-09-01T09:55:36.763Z,13
2018-09-01T10:01:31.774Z,17.13
2018-09-01T10:07:26.745Z,10.13
2018-09-01T10:13:21.824Z,14.84
2018-09-01T10:19:16.798Z,10.59
2018-09-01T10:25:11.778Z,12.85
2018-09-01T10:31:06.781Z,16.85
2018-09-01T10:37:01.809Z,14.17
2018-09-01T10:42:56.800Z,11.4
2018-09-01T10:48:51.839Z,12.1
2018-09-01T10:54:46.791Z,12.17
2018-09-01T11:00:41.837Z,14.37
2018-09-01T11:06:36.809Z,17.27
2018-09-01T11:12:31.825Z,12.22
2018-09-01T11:18:26.817Z,8.3
2018-09-01T11:24:21.841Z,25.84
2018-09-01T11:30:16.835Z,5.77
2018-09-01T11:36:11.847Z,5.32
2018-09-01T11:42:06.823Z,6.48
2018-09-01T11:48:01.853Z,4.82
2018-09-01T11:53:56.885Z,5.1
2018-09-01T11:59:51.848Z,4.43
2018-09-01T12:05:46.844Z,5.1
2018-09-01T12:11:41.838Z,5.83
2018-09-01T12:17:36.850Z,5.39
2018-09-01T12:23:31.842Z,7.67
2018-09-01T12:29:26.869Z,5.72
2018-09-01T12:35:21.971Z,3.15
2018-09-01T12:41:16.846Z,3.67
2018-09-01T12:47:11.923Z,4.9
2018-09-01T12:53:06.964Z,3.48
2018-09-01T12:59:01.859Z,4.25
2018-09-01T13:04:56.914Z,5.64
2018-09-01T13:10:51.914Z,7.57
2018-09-01T13:16:46.891Z,6.07
2018-09-01T13:22:41.884Z,5.4
2018-09-01T13:28:36.903Z,7.32
2018-09-01T13:34:32.132Z,6.92
2018-09-01T13:40:26.900Z,4.11
2018-09-01T13:46:21.902Z,6.2
2018-09-01T13:52:16.924Z,16.38
2018-09-01T13:58:11.908Z,6.72
2018-09-01T14:04:06.916Z,7.53
2018-09-01T14:10:02.133Z,8.69
2018-09-01T14:15:56.929Z,8.51
2018-09-01T14:21:51.949Z,8.78
2018-09-01T14:27:46.948Z,6.44
2018-09-01T14:33:41.964Z,9.65
2018-09-01T14:39:36.951Z,10.45
2018-09-01T14:45:31.941Z,6.87
2018-09-01T14:51:26.950Z,6.47
2018-09-01T14:57:21.990Z,9.17
2018-09-01T15:03:16.997Z,6.71
2018-09-01T15:09:11.959Z,8.9
2018-09-01T15:15:07.002Z,9.21
2018-09-01T15:21:02.105Z,8.11
2018-09-01T15:26:56.978Z,8.35
2018-09-01T15:32:51.990Z,10.25
2018-09-01T15:38:46.977Z,10.63
2018-09-01T15:44:42.064Z,11.07
2018-09-01T15:50:36.996Z,10.72
2018-09-01T15:56:32.123Z,10.77
2018-09-01T16:02:27.015Z,7.9
2018-09-01T16:08:22.023Z,8.73
2018-09-01T16:14:17.014Z,11.19
2018-09-01T16:20:12.021Z,10.33
2018-09-01T16:26:07.085Z,8.13
2018-09-01T16:32:02.011Z,10.34
2018-09-01T16:37:57.014Z,9.15
2018-09-01T16:43:52.020Z,13.82
2018-09-01T16:49:47.062Z,9.4
2018-09-01T16:55:42.059Z,12.16
2018-09-01T17:01:37.067Z,10.55
2018-09-01T17:07:32.015Z,10.53
2018-09-01T17:13:27.024Z,9.55
2018-09-01T17:19:22.059Z,15.11
2018-09-01T17:25:17.025Z,10.28
2018-09-01T17:31:12.051Z,10.83
2018-09-01T17:37:07.065Z,12.72
2018-09-01T17:43:02.069Z,9.44
2018-09-01T17:48:57.058Z,7.68
2018-09-01T17:54:52.041Z,8.61
2018-09-01T18:00:47.061Z,11.73
2018-09-01T18:06:42.074Z,10.55
2018-09-01T18:12:37.085Z,13.41
2018-09-01T18:18:32.068Z,12.44
2018-09-01T18:24:27.062Z,10.97
2018-09-01T18:30:22.086Z,13.68
2018-09-01T18:36:17.076Z,13.87
2018-09-01T18:42:12.142Z,11.7
2018-09-01T18:48:07.097Z,13.8
2018-09-01T18:54:06.607Z,13.21
2018-09-01T18:59:57.117Z,14.49
2018-09-01T19:05:52.100Z,13.28
2018-09-01T19:11:47.349Z,11.8
2018-09-01T19:17:42.112Z,12.55
2018-09-01T19:23:37.115Z,10.39
2018-09-01T19:29:32.116Z,9.55
2018-09-01T19:35:27.099Z,17.1
2018-09-01T19:41:22.116Z,11.27
2018-09-01T19:47:17.203Z,12.07
2018-09-01T19:53:12.168Z,23.18
2018-09-01T19:59:07.148Z,24.17
2018-09-01T20:05:02.316Z,24.1
2018-09-01T20:10:57.164Z,21.21
2018-09-01T20:16:52.197Z,18.82
2018-09-01T20:22:47.203Z,17.2
2018-09-01T20:28:42.138Z,16.85
2018-09-01T20:34:37.184Z,14.15
2018-09-01T20:40:32.170Z,16.29
2018-09-01T20:46:27.203Z,16.79
2018-09-01T20:52:22.163Z,13.37
2018-09-01T20:58:17.223Z,16.01
2018-09-01T21:04:12.225Z,52.83
2018-09-01T21:10:07.231Z,21.22
2018-09-01T21:16:02.300Z,22.77
2018-09-01T21:21:57.251Z,17.9
2018-09-01T21:27:52.233Z,18.64
2018-09-01T21:33:47.203Z,11.87
2018-09-01T21:39:42.305Z,11.96
2018-09-01T21:45:37.203Z,13.26
2018-09-01T21:51:32.192Z,16.48
2018-09-01T21:57:27.195Z,10.54
2018-09-01T22:03:22.229Z,10.18
2018-09-01T22:09:17.295Z,12.52
2018-09-01T22:15:12.229Z,9.09
2018-09-01T22:21:07.243Z,11.84
2018-09-01T22:27:02.217Z,10.54
2018-09-01T22:32:57.282Z,13.33
2018-09-01T22:38:52.251Z,13.62
2018-09-01T22:44:47.234Z,10.43
2018-09-01T22:50:42.262Z,13.95
2018-09-01T22:56:37.338Z,14.93
2018-09-01T23:02:32.260Z,10.08
2018-09-01T23:08:27.261Z,13.29
2018-09-01T23:14:22.249Z,12.97
2018-09-01T23:20:17.257Z,10.73
2018-09-01T23:26:12.259Z,14.79
2018-09-01T23:32:07.248Z,9.59
2018-09-01T23:38:02.261Z,12.83
2018-09-01T23:43:57.275Z,11.02
2018-09-01T23:49:52.272Z,15.51
2018-09-01T23:55:47.293Z,17.59
